Portada
METAR-TAF:

METAR-TAF

Aeroports :

Pruniers

Romorantin-Lanthenay, França

latitud: 47-19N, longitud: 001-41E, altitud: 85 m

Observació

L'informe es va fer fa 33 minuts, a les 12:30 UTC
Vent 9 kt del Oest, variant entre Sud-Oest i Nord-Oest
Temperatura 18°C
Humitat 49%
Pressió 1006 hPa
Visibilitat 10 km o més
sense núvols per sota de 1500 mi sense presència de cumulonimbus.

METAR: LFYR 061230Z AUTO 27009KT 230V310 CAVOK 18/07 Q1006

Hora: 15:03 (13:03 UTC)


TAF: manca

Observacions i pronòstics meteorològics de més de 4000 aeroports (METAR i TAF).

Les estacions disponibles són els punts grocs i vermells al mapa.

Posi el ratolí al punt desitjat per veure el nom de l'estació.

Feu clic per veure les observacions i els pronòstics meteorològics.

Per canviar el mapa: feu clic els botons verds amb una creu de color negre per apropar; al botó verd amb un guió per allunyar la imatge; o en les fletxes verdes per a mapes adjacents.


METAR-TAF: